sensor_id;sensor_type;location;lat;lon;timestamp;P1;durP1;ratioP1;P2;durP2;ratioP2
8944;SDS011;4507;40.232;29.132;2023-09-07T00:01:00;15.27;;;10.07;;
8944;SDS011;4507;40.232;29.132;2023-09-07T00:03:32;16.83;;;12.13;;
8944;SDS011;4507;40.232;29.132;2023-09-07T00:06:02;20.20;;;13.03;;
8944;SDS011;4507;40.232;29.132;2023-09-07T00:08:30;16.30;;;10.90;;
8944;SDS011;4507;40.232;29.132;2023-09-07T00:11:02;14.40;;;9.60;;
8944;SDS011;4507;40.232;29.132;2023-09-07T00:13:32;12.77;;;9.10;;
8944;SDS011;4507;40.232;29.132;2023-09-07T00:16:01;11.23;;;8.90;;
8944;SDS011;4507;40.232;29.132;2023-09-07T00:18:32;11.80;;;7.60;;
8944;SDS011;4507;40.232;29.132;2023-09-07T00:21:02;10.07;;;8.33;;
8944;SDS011;4507;40.232;29.132;2023-09-07T00:23:31;10.33;;;8.77;;
8944;SDS011;4507;40.232;29.132;2023-09-07T00:26:00;11.43;;;9.93;;
8944;SDS011;4507;40.232;29.132;2023-09-07T00:28:30;11.90;;;9.13;;
8944;SDS011;4507;40.232;29.132;2023-09-07T00:30:59;15.03;;;10.80;;
8944;SDS011;4507;40.232;29.132;2023-09-07T00:33:29;13.63;;;11.07;;
8944;SDS011;4507;40.232;29.132;2023-09-07T00:36:00;22.33;;;11.23;;
8944;SDS011;4507;40.232;29.132;2023-09-07T00:38:30;14.53;;;11.50;;
8944;SDS011;4507;40.232;29.132;2023-09-07T00:40:59;19.07;;;12.33;;
8944;SDS011;4507;40.232;29.132;2023-09-07T00:43:28;14.60;;;12.17;;
8944;SDS011;4507;40.232;29.132;2023-09-07T00:45:57;15.00;;;11.00;;
8944;SDS011;4507;40.232;29.132;2023-09-07T00:48:26;12.97;;;11.10;;
8944;SDS011;4507;40.232;29.132;2023-09-07T00:50:55;15.87;;;10.50;;
8944;SDS011;4507;40.232;29.132;2023-09-07T00:53:26;12.80;;;10.20;;
8944;SDS011;4507;40.232;29.132;2023-09-07T00:55:55;10.00;;;8.60;;
8944;SDS011;4507;40.232;29.132;2023-09-07T00:58:25;11.80;;;9.00;;
8944;SDS011;4507;40.232;29.132;2023-09-07T01:00:55;9.60;;;7.90;;
8944;SDS011;4507;40.232;29.132;2023-09-07T01:03:24;14.70;;;8.30;;
8944;SDS011;4507;40.232;29.132;2023-09-07T01:05:56;8.40;;;7.40;;
8944;SDS011;4507;40.232;29.132;2023-09-07T01:08:35;11.33;;;7.63;;
8944;SDS011;4507;40.232;29.132;2023-09-07T01:11:13;9.17;;;7.90;;
8944;SDS011;4507;40.232;29.132;2023-09-07T01:13:43;9.77;;;7.67;;
8944;SDS011;4507;40.232;29.132;2023-09-07T01:16:12;11.53;;;7.63;;
8944;SDS011;4507;40.232;29.132;2023-09-07T01:18:42;63.57;;;13.20;;
8944;SDS011;4507;40.232;29.132;2023-09-07T01:21:13;12.20;;;8.83;;
8944;SDS011;4507;40.232;29.132;2023-09-07T01:23:44;9.67;;;8.40;;
8944;SDS011;4507;40.232;29.132;2023-09-07T01:26:15;11.97;;;8.90;;
8944;SDS011;4507;40.232;29.132;2023-09-07T01:28:44;9.67;;;8.67;;
8944;SDS011;4507;40.232;29.132;2023-09-07T01:31:15;11.13;;;9.57;;
8944;SDS011;4507;40.232;29.132;2023-09-07T01:33:45;13.07;;;10.50;;
8944;SDS011;4507;40.232;29.132;2023-09-07T01:36:14;28.30;;;21.23;;
8944;SDS011;4507;40.232;29.132;2023-09-07T01:38:45;45.67;;;31.50;;
8944;SDS011;4507;40.232;29.132;2023-09-07T01:41:13;27.97;;;20.80;;
8944;SDS011;4507;40.232;29.132;2023-09-07T01:43:43;32.43;;;24.23;;
8944;SDS011;4507;40.232;29.132;2023-09-07T01:46:12;20.83;;;14.57;;
8944;SDS011;4507;40.232;29.132;2023-09-07T01:48:41;13.37;;;10.50;;
8944;SDS011;4507;40.232;29.132;2023-09-07T01:51:10;12.50;;;9.00;;
8944;SDS011;4507;40.232;29.132;2023-09-07T01:53:40;12.30;;;8.70;;
8944;SDS011;4507;40.232;29.132;2023-09-07T01:56:10;11.53;;;9.33;;
8944;SDS011;4507;40.232;29.132;2023-09-07T01:58:40;12.13;;;10.27;;
8944;SDS011;4507;40.232;29.132;2023-09-07T02:01:20;11.70;;;10.27;;
8944;SDS011;4507;40.232;29.132;2023-09-07T02:03:50;15.33;;;10.07;;
8944;SDS011;4507;40.232;29.132;2023-09-07T02:06:18;22.63;;;10.80;;
8944;SDS011;4507;40.232;29.132;2023-09-07T02:08:47;16.17;;;11.57;;
8944;SDS011;4507;40.232;29.132;2023-09-07T02:11:18;23.13;;;15.87;;
8944;SDS011;4507;40.232;29.132;2023-09-07T02:13:48;27.90;;;22.20;;
8944;SDS011;4507;40.232;29.132;2023-09-07T02:16:18;29.53;;;21.10;;
8944;SDS011;4507;40.232;29.132;2023-09-07T02:18:48;23.27;;;16.23;;
8944;SDS011;4507;40.232;29.132;2023-09-07T02:21:18;36.77;;;30.27;;
8944;SDS011;4507;40.232;29.132;2023-09-07T02:23:47;55.13;;;42.67;;
8944;SDS011;4507;40.232;29.132;2023-09-07T02:26:17;64.63;;;49.70;;
8944;SDS011;4507;40.232;29.132;2023-09-07T02:28:46;54.17;;;43.70;;
8944;SDS011;4507;40.232;29.132;2023-09-07T02:31:15;68.83;;;53.23;;
8944;SDS011;4507;40.232;29.132;2023-09-07T02:33:45;37.87;;;32.40;;
8944;SDS011;4507;40.232;29.132;2023-09-07T02:36:14;30.27;;;26.63;;
8944;SDS011;4507;40.232;29.132;2023-09-07T02:38:43;34.93;;;26.00;;
8944;SDS011;4507;40.232;29.132;2023-09-07T02:41:12;21.57;;;19.20;;
8944;SDS011;4507;40.232;29.132;2023-09-07T02:43:42;38.33;;;33.13;;
8944;SDS011;4507;40.232;29.132;2023-09-07T02:46:11;33.77;;;26.60;;
8944;SDS011;4507;40.232;29.132;2023-09-07T02:48:40;27.23;;;22.53;;
8944;SDS011;4507;40.232;29.132;2023-09-07T02:51:09;22.70;;;14.83;;
8944;SDS011;4507;40.232;29.132;2023-09-07T02:53:38;25.63;;;19.00;;
8944;SDS011;4507;40.232;29.132;2023-09-07T02:56:08;35.13;;;30.20;;
8944;SDS011;4507;40.232;29.132;2023-09-07T02:58:39;38.17;;;26.73;;
8944;SDS011;4507;40.232;29.132;2023-09-07T03:01:09;28.07;;;19.33;;
8944;SDS011;4507;40.232;29.132;2023-09-07T03:03:40;25.10;;;17.30;;
8944;SDS011;4507;40.232;29.132;2023-09-07T03:06:10;32.23;;;25.53;;
8944;SDS011;4507;40.232;29.132;2023-09-07T03:08:43;31.47;;;27.07;;
8944;SDS011;4507;40.232;29.132;2023-09-07T03:11:12;23.40;;;18.83;;
8944;SDS011;4507;40.232;29.132;2023-09-07T03:13:41;19.17;;;16.53;;
8944;SDS011;4507;40.232;29.132;2023-09-07T03:16:12;19.00;;;14.87;;
8944;SDS011;4507;40.232;29.132;2023-09-07T03:18:41;23.27;;;15.30;;
8944;SDS011;4507;40.232;29.132;2023-09-07T03:21:11;23.23;;;15.57;;
8944;SDS011;4507;40.232;29.132;2023-09-07T03:23:42;17.70;;;15.90;;
8944;SDS011;4507;40.232;29.132;2023-09-07T03:26:14;18.97;;;14.80;;
8944;SDS011;4507;40.232;29.132;2023-09-07T03:28:43;16.83;;;14.40;;
8944;SDS011;4507;40.232;29.132;2023-09-07T03:31:14;15.33;;;13.73;;
8944;SDS011;4507;40.232;29.132;2023-09-07T03:33:44;16.07;;;14.27;;
8944;SDS011;4507;40.232;29.132;2023-09-07T03:36:13;38.47;;;15.27;;
8944;SDS011;4507;40.232;29.132;2023-09-07T03:38:42;22.13;;;14.23;;
8944;SDS011;4507;40.232;29.132;2023-09-07T03:41:13;24.17;;;14.77;;
8944;SDS011;4507;40.232;29.132;2023-09-07T03:43:42;27.97;;;14.13;;
8944;SDS011;4507;40.232;29.132;2023-09-07T03:46:13;36.40;;;17.50;;
8944;SDS011;4507;40.232;29.132;2023-09-07T03:48:43;25.37;;;14.67;;
8944;SDS011;4507;40.232;29.132;2023-09-07T03:51:12;21.77;;;15.10;;
8944;SDS011;4507;40.232;29.132;2023-09-07T03:53:41;18.80;;;14.87;;
8944;SDS011;4507;40.232;29.132;2023-09-07T03:56:11;19.07;;;15.97;;
8944;SDS011;4507;40.232;29.132;2023-09-07T03:58:40;23.07;;;15.97;;
8944;SDS011;4507;40.232;29.132;2023-09-07T04:01:10;22.43;;;14.87;;
8944;SDS011;4507;40.232;29.132;2023-09-07T04:03:41;24.47;;;15.83;;
8944;SDS011;4507;40.232;29.132;2023-09-07T04:06:29;19.57;;;15.27;;
8944;SDS011;4507;40.232;29.132;2023-09-07T04:08:58;32.03;;;16.63;;
8944;SDS011;4507;40.232;29.132;2023-09-07T04:11:28;19.13;;;15.63;;
8944;SDS011;4507;40.232;29.132;2023-09-07T04:13:57;21.47;;;15.83;;
8944;SDS011;4507;40.232;29.132;2023-09-07T04:16:26;24.13;;;15.83;;
8944;SDS011;4507;40.232;29.132;2023-09-07T04:18:58;25.37;;;16.43;;
8944;SDS011;4507;40.232;29.132;2023-09-07T04:21:32;21.10;;;15.90;;
8944;SDS011;4507;40.232;29.132;2023-09-07T04:24:03;18.73;;;15.23;;
8944;SDS011;4507;40.232;29.132;2023-09-07T04:26:33;37.60;;;15.57;;
8944;SDS011;4507;40.232;29.132;2023-09-07T04:29:02;26.83;;;16.07;;
8944;SDS011;4507;40.232;29.132;2023-09-07T04:31:32;23.60;;;16.40;;
8944;SDS011;4507;40.232;29.132;2023-09-07T04:34:03;28.50;;;16.23;;
8944;SDS011;4507;40.232;29.132;2023-09-07T04:36:33;32.93;;;17.77;;
8944;SDS011;4507;40.232;29.132;2023-09-07T04:39:02;27.90;;;20.13;;
8944;SDS011;4507;40.232;29.132;2023-09-07T04:41:31;23.30;;;16.83;;
8944;SDS011;4507;40.232;29.132;2023-09-07T04:44:01;35.10;;;18.23;;
8944;SDS011;4507;40.232;29.132;2023-09-07T04:46:30;19.50;;;15.57;;
8944;SDS011;4507;40.232;29.132;2023-09-07T04:49:00;26.90;;;15.87;;
8944;SDS011;4507;40.232;29.132;2023-09-07T04:51:31;19.87;;;14.90;;
8944;SDS011;4507;40.232;29.132;2023-09-07T04:54:00;19.40;;;14.50;;
8944;SDS011;4507;40.232;29.132;2023-09-07T04:56:30;17.50;;;13.50;;
8944;SDS011;4507;40.232;29.132;2023-09-07T04:59:06;29.37;;;14.67;;
8944;SDS011;4507;40.232;29.132;2023-09-07T05:01:39;19.57;;;14.33;;
8944;SDS011;4507;40.232;29.132;2023-09-07T05:04:09;21.67;;;13.83;;
8944;SDS011;4507;40.232;29.132;2023-09-07T05:06:40;23.90;;;14.53;;
8944;SDS011;4507;40.232;29.132;2023-09-07T05:09:11;20.77;;;13.70;;
8944;SDS011;4507;40.232;29.132;2023-09-07T05:11:40;23.53;;;14.43;;
8944;SDS011;4507;40.232;29.132;2023-09-07T05:14:09;26.50;;;14.77;;
8944;SDS011;4507;40.232;29.132;2023-09-07T05:16:38;24.87;;;14.60;;
8944;SDS011;4507;40.232;29.132;2023-09-07T05:19:10;41.77;;;15.47;;
8944;SDS011;4507;40.232;29.132;2023-09-07T05:21:41;32.73;;;17.57;;
8944;SDS011;4507;40.232;29.132;2023-09-07T05:24:12;40.20;;;14.50;;
8944;SDS011;4507;40.232;29.132;2023-09-07T05:26:42;41.87;;;14.00;;
8944;SDS011;4507;40.232;29.132;2023-09-07T05:29:11;37.97;;;12.70;;
8944;SDS011;4507;40.232;29.132;2023-09-07T05:31:41;14.60;;;10.80;;
8944;SDS011;4507;40.232;29.132;2023-09-07T05:34:11;32.33;;;12.50;;
8944;SDS011;4507;40.232;29.132;2023-09-07T05:36:41;27.80;;;11.77;;
8944;SDS011;4507;40.232;29.132;2023-09-07T05:39:11;26.97;;;12.77;;
8944;SDS011;4507;40.232;29.132;2023-09-07T05:41:40;18.70;;;12.17;;
8944;SDS011;4507;40.232;29.132;2023-09-07T05:44:10;35.13;;;13.30;;
8944;SDS011;4507;40.232;29.132;2023-09-07T05:46:39;31.03;;;14.03;;
8944;SDS011;4507;40.232;29.132;2023-09-07T05:49:09;23.13;;;13.47;;
8944;SDS011;4507;40.232;29.132;2023-09-07T05:51:38;21.33;;;14.03;;
8944;SDS011;4507;40.232;29.132;2023-09-07T05:54:09;20.37;;;13.80;;
8944;SDS011;4507;40.232;29.132;2023-09-07T05:56:39;29.63;;;13.63;;
8944;SDS011;4507;40.232;29.132;2023-09-07T05:59:08;28.17;;;14.93;;
8944;SDS011;4507;40.232;29.132;2023-09-07T06:01:38;40.33;;;14.10;;
8944;SDS011;4507;40.232;29.132;2023-09-07T06:04:08;31.37;;;12.83;;
8944;SDS011;4507;40.232;29.132;2023-09-07T06:06:37;16.93;;;9.87;;
8944;SDS011;4507;40.232;29.132;2023-09-07T06:09:07;20.00;;;12.50;;
8944;SDS011;4507;40.232;29.132;2023-09-07T06:11:38;32.27;;;12.23;;
8944;SDS011;4507;40.232;29.132;2023-09-07T06:14:08;27.27;;;13.70;;
8944;SDS011;4507;40.232;29.132;2023-09-07T06:16:38;34.60;;;18.73;;
8944;SDS011;4507;40.232;29.132;2023-09-07T06:19:16;24.77;;;11.90;;
8944;SDS011;4507;40.232;29.132;2023-09-07T06:22:12;24.80;;;11.30;;
8944;SDS011;4507;40.232;29.132;2023-09-07T06:24:43;55.53;;;13.20;;
8944;SDS011;4507;40.232;29.132;2023-09-07T06:27:13;63.53;;;34.10;;
8944;SDS011;4507;40.232;29.132;2023-09-07T06:29:43;35.07;;;16.23;;
8944;SDS011;4507;40.232;29.132;2023-09-07T06:32:13;47.17;;;23.50;;
8944;SDS011;4507;40.232;29.132;2023-09-07T06:34:42;63.43;;;36.67;;
8944;SDS011;4507;40.232;29.132;2023-09-07T06:37:18;38.60;;;23.97;;
8944;SDS011;4507;40.232;29.132;2023-09-07T06:40:12;25.57;;;13.17;;
8944;SDS011;4507;40.232;29.132;2023-09-07T06:42:43;19.07;;;10.57;;
8944;SDS011;4507;40.232;29.132;2023-09-07T06:45:16;52.70;;;28.53;;
8944;SDS011;4507;40.232;29.132;2023-09-07T06:47:45;69.80;;;33.57;;
8944;SDS011;4507;40.232;29.132;2023-09-07T06:50:20;39.13;;;18.50;;
8944;SDS011;4507;40.232;29.132;2023-09-07T06:52:50;54.30;;;31.17;;
8944;SDS011;4507;40.232;29.132;2023-09-07T06:55:29;47.27;;;37.23;;
8944;SDS011;4507;40.232;29.132;2023-09-07T06:58:27;101.23;;;54.80;;
8944;SDS011;4507;40.232;29.132;2023-09-07T07:00:57;59.87;;;40.37;;
8944;SDS011;4507;40.232;29.132;2023-09-07T07:03:29;60.27;;;43.67;;
8944;SDS011;4507;40.232;29.132;2023-09-07T07:05:59;52.70;;;40.93;;
8944;SDS011;4507;40.232;29.132;2023-09-07T07:08:32;78.90;;;46.87;;
8944;SDS011;4507;40.232;29.132;2023-09-07T07:11:03;44.03;;;17.07;;
8944;SDS011;4507;40.232;29.132;2023-09-07T07:13:35;30.13;;;14.10;;
8944;SDS011;4507;40.232;29.132;2023-09-07T07:16:05;31.40;;;15.40;;
8944;SDS011;4507;40.232;29.132;2023-09-07T07:18:36;26.23;;;13.50;;
8944;SDS011;4507;40.232;29.132;2023-09-07T07:21:10;47.43;;;39.07;;
8944;SDS011;4507;40.232;29.132;2023-09-07T07:23:39;25.30;;;15.70;;
8944;SDS011;4507;40.232;29.132;2023-09-07T07:26:10;37.30;;;14.03;;
8944;SDS011;4507;40.232;29.132;2023-09-07T07:28:40;32.10;;;25.87;;
8944;SDS011;4507;40.232;29.132;2023-09-07T07:31:09;54.93;;;45.30;;
8944;SDS011;4507;40.232;29.132;2023-09-07T07:33:43;62.87;;;46.57;;
8944;SDS011;4507;40.232;29.132;2023-09-07T07:36:16;19.10;;;9.23;;
8944;SDS011;4507;40.232;29.132;2023-09-07T07:39:16;36.60;;;21.63;;
8944;SDS011;4507;40.232;29.132;2023-09-07T07:42:24;26.27;;;14.43;;
8944;SDS011;4507;40.232;29.132;2023-09-07T07:45:13;33.13;;;9.87;;
8944;SDS011;4507;40.232;29.132;2023-09-07T07:47:48;23.30;;;7.70;;
8944;SDS011;4507;40.232;29.132;2023-09-07T07:50:17;108.30;;;33.33;;
8944;SDS011;4507;40.232;29.132;2023-09-07T07:52:48;28.27;;;9.93;;
8944;SDS011;4507;40.232;29.132;2023-09-07T07:55:17;21.27;;;10.53;;
8944;SDS011;4507;40.232;29.132;2023-09-07T07:57:48;79.27;;;39.63;;
8944;SDS011;4507;40.232;29.132;2023-09-07T08:00:18;26.83;;;14.17;;
8944;SDS011;4507;40.232;29.132;2023-09-07T08:02:52;24.20;;;8.03;;
8944;SDS011;4507;40.232;29.132;2023-09-07T08:05:28;22.60;;;14.97;;
8944;SDS011;4507;40.232;29.132;2023-09-07T08:08:28;29.77;;;17.43;;
8944;SDS011;4507;40.232;29.132;2023-09-07T08:11:17;23.67;;;16.97;;
8944;SDS011;4507;40.232;29.132;2023-09-07T08:13:52;18.23;;;8.70;;
8944;SDS011;4507;40.232;29.132;2023-09-07T08:16:21;62.80;;;16.77;;
8944;SDS011;4507;40.232;29.132;2023-09-07T08:18:51;18.90;;;9.17;;
8944;SDS011;4507;40.232;29.132;2023-09-07T08:21:20;24.53;;;9.47;;
8944;SDS011;4507;40.232;29.132;2023-09-07T08:23:50;19.07;;;14.30;;
8944;SDS011;4507;40.232;29.132;2023-09-07T08:26:20;47.90;;;10.70;;
8944;SDS011;4507;40.232;29.132;2023-09-07T08:28:49;54.40;;;15.40;;
8944;SDS011;4507;40.232;29.132;2023-09-07T08:31:20;66.47;;;15.60;;
8944;SDS011;4507;40.232;29.132;2023-09-07T08:33:54;12.90;;;8.03;;
8944;SDS011;4507;40.232;29.132;2023-09-07T08:36:51;13.23;;;8.53;;
8944;SDS011;4507;40.232;29.132;2023-09-07T08:39:27;16.73;;;8.57;;
8944;SDS011;4507;40.232;29.132;2023-09-07T08:42:01;13.30;;;8.80;;
8944;SDS011;4507;40.232;29.132;2023-09-07T08:44:32;21.30;;;8.77;;
8944;SDS011;4507;40.232;29.132;2023-09-07T08:47:06;32.03;;;17.63;;
8944;SDS011;4507;40.232;29.132;2023-09-07T08:49:36;18.37;;;8.03;;
8944;SDS011;4507;40.232;29.132;2023-09-07T08:52:06;19.33;;;12.97;;
8944;SDS011;4507;40.232;29.132;2023-09-07T08:54:35;19.93;;;7.57;;
8944;SDS011;4507;40.232;29.132;2023-09-07T08:57:06;29.37;;;8.90;;
8944;SDS011;4507;40.232;29.132;2023-09-07T08:59:37;16.53;;;8.27;;
8944;SDS011;4507;40.232;29.132;2023-09-07T09:02:09;9.20;;;7.30;;
8944;SDS011;4507;40.232;29.132;2023-09-07T09:04:39;24.20;;;8.27;;
8944;SDS011;4507;40.232;29.132;2023-09-07T09:07:08;42.90;;;15.00;;
8944;SDS011;4507;40.232;29.132;2023-09-07T09:09:38;39.70;;;12.33;;
8944;SDS011;4507;40.232;29.132;2023-09-07T09:12:07;22.90;;;13.67;;
8944;SDS011;4507;40.232;29.132;2023-09-07T09:14:37;19.83;;;9.30;;
8944;SDS011;4507;40.232;29.132;2023-09-07T09:17:12;17.40;;;7.80;;
8944;SDS011;4507;40.232;29.132;2023-09-07T09:19:42;22.17;;;7.57;;
8944;SDS011;4507;40.232;29.132;2023-09-07T09:22:11;18.03;;;7.60;;
8944;SDS011;4507;40.232;29.132;2023-09-07T09:24:40;24.00;;;7.23;;
8944;SDS011;4507;40.232;29.132;2023-09-07T09:27:10;25.57;;;7.37;;
8944;SDS011;4507;40.232;29.132;2023-09-07T09:29:57;30.43;;;7.47;;
8944;SDS011;4507;40.232;29.132;2023-09-07T09:32:29;13.43;;;6.83;;
8944;SDS011;4507;40.232;29.132;2023-09-07T09:34:58;21.30;;;6.67;;
8944;SDS011;4507;40.232;29.132;2023-09-07T09:37:29;9.67;;;5.60;;
8944;SDS011;4507;40.232;29.132;2023-09-07T09:40:00;10.00;;;6.03;;
8944;SDS011;4507;40.232;29.132;2023-09-07T09:42:32;27.40;;;7.00;;
8944;SDS011;4507;40.232;29.132;2023-09-07T09:45:01;9.33;;;5.43;;
8944;SDS011;4507;40.232;29.132;2023-09-07T09:47:36;22.37;;;6.97;;
8944;SDS011;4507;40.232;29.132;2023-09-07T09:50:09;10.93;;;5.87;;
8944;SDS011;4507;40.232;29.132;2023-09-07T09:52:39;10.90;;;5.97;;
8944;SDS011;4507;40.232;29.132;2023-09-07T09:55:09;13.97;;;6.23;;
8944;SDS011;4507;40.232;29.132;2023-09-07T09:57:40;12.00;;;5.80;;
8944;SDS011;4507;40.232;29.132;2023-09-07T10:00:10;10.83;;;5.63;;
8944;SDS011;4507;40.232;29.132;2023-09-07T10:02:57;13.97;;;5.67;;
8944;SDS011;4507;40.232;29.132;2023-09-07T10:05:31;9.67;;;5.43;;
8944;SDS011;4507;40.232;29.132;2023-09-07T10:08:02;13.53;;;6.43;;
8944;SDS011;4507;40.232;29.132;2023-09-07T10:10:52;16.80;;;6.17;;
8944;SDS011;4507;40.232;29.132;2023-09-07T10:13:28;12.63;;;5.67;;
8944;SDS011;4507;40.232;29.132;2023-09-07T10:16:02;24.97;;;6.53;;
8944;SDS011;4507;40.232;29.132;2023-09-07T10:18:36;18.07;;;6.87;;
8944;SDS011;4507;40.232;29.132;2023-09-07T10:21:06;20.10;;;6.30;;
8944;SDS011;4507;40.232;29.132;2023-09-07T10:23:39;15.90;;;6.03;;
8944;SDS011;4507;40.232;29.132;2023-09-07T10:26:12;25.30;;;7.33;;
8944;SDS011;4507;40.232;29.132;2023-09-07T10:29:01;45.33;;;7.93;;
8944;SDS011;4507;40.232;29.132;2023-09-07T10:31:30;16.33;;;6.43;;
8944;SDS011;4507;40.232;29.132;2023-09-07T10:34:21;10.13;;;6.00;;
8944;SDS011;4507;40.232;29.132;2023-09-07T10:36:55;12.83;;;6.80;;
8944;SDS011;4507;40.232;29.132;2023-09-07T10:39:43;24.93;;;6.70;;
8944;SDS011;4507;40.232;29.132;2023-09-07T10:42:22;16.03;;;5.93;;
8944;SDS011;4507;40.232;29.132;2023-09-07T10:44:53;14.23;;;6.07;;
8944;SDS011;4507;40.232;29.132;2023-09-07T10:47:39;15.77;;;6.40;;
8944;SDS011;4507;40.232;29.132;2023-09-07T10:50:12;45.43;;;8.33;;
8944;SDS011;4507;40.232;29.132;2023-09-07T10:52:41;15.67;;;6.90;;
8944;SDS011;4507;40.232;29.132;2023-09-07T10:55:11;19.40;;;6.30;;
8944;SDS011;4507;40.232;29.132;2023-09-07T10:57:41;11.10;;;6.60;;
8944;SDS011;4507;40.232;29.132;2023-09-07T11:00:12;9.60;;;5.83;;
8944;SDS011;4507;40.232;29.132;2023-09-07T11:02:42;14.47;;;7.00;;
8944;SDS011;4507;40.232;29.132;2023-09-07T11:05:14;22.00;;;8.37;;
8944;SDS011;4507;40.232;29.132;2023-09-07T11:07:45;14.87;;;6.70;;
8944;SDS011;4507;40.232;29.132;2023-09-07T11:10:14;22.00;;;7.20;;
8944;SDS011;4507;40.232;29.132;2023-09-07T11:12:44;16.73;;;6.40;;
8944;SDS011;4507;40.232;29.132;2023-09-07T11:15:15;66.43;;;9.60;;
8944;SDS011;4507;40.232;29.132;2023-09-07T11:17:47;16.33;;;7.53;;
8944;SDS011;4507;40.232;29.132;2023-09-07T11:20:22;16.70;;;7.47;;
8944;SDS011;4507;40.232;29.132;2023-09-07T11:22:53;13.90;;;7.80;;
8944;SDS011;4507;40.232;29.132;2023-09-07T11:25:34;19.47;;;7.00;;
8944;SDS011;4507;40.232;29.132;2023-09-07T11:28:05;14.70;;;6.77;;
8944;SDS011;4507;40.232;29.132;2023-09-07T11:30:35;10.60;;;7.37;;
8944;SDS011;4507;40.232;29.132;2023-09-07T11:33:04;20.07;;;8.90;;
8944;SDS011;4507;40.232;29.132;2023-09-07T11:35:36;15.93;;;7.27;;
8944;SDS011;4507;40.232;29.132;2023-09-07T11:38:07;23.77;;;8.37;;
8944;SDS011;4507;40.232;29.132;2023-09-07T11:40:38;38.80;;;10.63;;
8944;SDS011;4507;40.232;29.132;2023-09-07T11:43:10;27.43;;;8.00;;
8944;SDS011;4507;40.232;29.132;2023-09-07T11:45:39;16.30;;;7.40;;
8944;SDS011;4507;40.232;29.132;2023-09-07T11:48:09;17.03;;;7.30;;
8944;SDS011;4507;40.232;29.132;2023-09-07T11:50:40;45.63;;;9.77;;
8944;SDS011;4507;40.232;29.132;2023-09-07T11:53:10;24.50;;;8.07;;
8944;SDS011;4507;40.232;29.132;2023-09-07T11:55:39;20.23;;;7.13;;
8944;SDS011;4507;40.232;29.132;2023-09-07T11:58:10;34.93;;;8.97;;
8944;SDS011;4507;40.232;29.132;2023-09-07T12:00:39;11.20;;;7.17;;
8944;SDS011;4507;40.232;29.132;2023-09-07T12:03:14;29.13;;;7.93;;
8944;SDS011;4507;40.232;29.132;2023-09-07T12:06:04;17.53;;;7.57;;
8944;SDS011;4507;40.232;29.132;2023-09-07T12:08:33;23.53;;;7.63;;
8944;SDS011;4507;40.232;29.132;2023-09-07T12:11:03;19.90;;;7.80;;
8944;SDS011;4507;40.232;29.132;2023-09-07T12:13:32;55.70;;;9.67;;
8944;SDS011;4507;40.232;29.132;2023-09-07T12:16:01;26.17;;;8.07;;
8944;SDS011;4507;40.232;29.132;2023-09-07T12:18:30;42.63;;;11.73;;
8944;SDS011;4507;40.232;29.132;2023-09-07T12:21:00;20.07;;;7.60;;
8944;SDS011;4507;40.232;29.132;2023-09-07T12:23:30;37.13;;;9.03;;
8944;SDS011;4507;40.232;29.132;2023-09-07T12:26:00;16.57;;;6.77;;
8944;SDS011;4507;40.232;29.132;2023-09-07T12:28:31;15.83;;;7.03;;
8944;SDS011;4507;40.232;29.132;2023-09-07T12:31:01;22.93;;;6.70;;
8944;SDS011;4507;40.232;29.132;2023-09-07T12:33:50;14.90;;;7.30;;
8944;SDS011;4507;40.232;29.132;2023-09-07T12:36:20;19.20;;;7.23;;
8944;SDS011;4507;40.232;29.132;2023-09-07T12:38:51;23.43;;;7.83;;
8944;SDS011;4507;40.232;29.132;2023-09-07T12:41:20;11.30;;;6.90;;
8944;SDS011;4507;40.232;29.132;2023-09-07T12:43:50;20.97;;;7.10;;
8944;SDS011;4507;40.232;29.132;2023-09-07T12:46:23;15.80;;;7.00;;
8944;SDS011;4507;40.232;29.132;2023-09-07T12:49:06;11.70;;;5.70;;
8944;SDS011;4507;40.232;29.132;2023-09-07T12:51:42;13.70;;;6.13;;
8944;SDS011;4507;40.232;29.132;2023-09-07T12:54:34;13.57;;;6.10;;
8944;SDS011;4507;40.232;29.132;2023-09-07T12:57:04;31.07;;;7.27;;
8944;SDS011;4507;40.232;29.132;2023-09-07T12:59:36;24.83;;;6.80;;
8944;SDS011;4507;40.232;29.132;2023-09-07T13:02:05;16.43;;;6.20;;
8944;SDS011;4507;40.232;29.132;2023-09-07T13:04:35;24.23;;;7.13;;
8944;SDS011;4507;40.232;29.132;2023-09-07T13:07:04;14.67;;;6.90;;
8944;SDS011;4507;40.232;29.132;2023-09-07T13:09:38;28.13;;;7.57;;
8944;SDS011;4507;40.232;29.132;2023-09-07T13:12:07;20.80;;;6.80;;
8944;SDS011;4507;40.232;29.132;2023-09-07T13:14:36;12.20;;;5.90;;
8944;SDS011;4507;40.232;29.132;2023-09-07T13:17:05;27.97;;;7.07;;
8944;SDS011;4507;40.232;29.132;2023-09-07T13:19:37;11.77;;;6.57;;
8944;SDS011;4507;40.232;29.132;2023-09-07T13:22:07;35.30;;;8.67;;
8944;SDS011;4507;40.232;29.132;2023-09-07T13:24:38;13.63;;;6.67;;
8944;SDS011;4507;40.232;29.132;2023-09-07T13:27:08;16.53;;;6.77;;
8944;SDS011;4507;40.232;29.132;2023-09-07T13:29:37;68.67;;;11.43;;
8944;SDS011;4507;40.232;29.132;2023-09-07T13:32:06;28.50;;;7.50;;
8944;SDS011;4507;40.232;29.132;2023-09-07T13:34:37;15.87;;;6.90;;
8944;SDS011;4507;40.232;29.132;2023-09-07T13:37:06;17.63;;;6.70;;
8944;SDS011;4507;40.232;29.132;2023-09-07T13:39:35;39.10;;;6.93;;
8944;SDS011;4507;40.232;29.132;2023-09-07T13:42:06;15.30;;;6.07;;
8944;SDS011;4507;40.232;29.132;2023-09-07T13:44:36;53.30;;;8.33;;
8944;SDS011;4507;40.232;29.132;2023-09-07T13:47:06;20.43;;;6.00;;
8944;SDS011;4507;40.232;29.132;2023-09-07T13:49:37;156.17;;;11.60;;
8944;SDS011;4507;40.232;29.132;2023-09-07T13:52:06;13.60;;;6.00;;
8944;SDS011;4507;40.232;29.132;2023-09-07T13:54:35;15.00;;;5.80;;
8944;SDS011;4507;40.232;29.132;2023-09-07T13:57:06;16.10;;;6.13;;
8944;SDS011;4507;40.232;29.132;2023-09-07T13:59:35;20.43;;;6.00;;
8944;SDS011;4507;40.232;29.132;2023-09-07T14:02:05;17.57;;;5.50;;
8944;SDS011;4507;40.232;29.132;2023-09-07T14:04:34;32.07;;;6.53;;
8944;SDS011;4507;40.232;29.132;2023-09-07T14:07:04;18.03;;;5.47;;
8944;SDS011;4507;40.232;29.132;2023-09-07T14:09:34;16.97;;;6.00;;
8944;SDS011;4507;40.232;29.132;2023-09-07T14:12:03;12.93;;;5.23;;
8944;SDS011;4507;40.232;29.132;2023-09-07T14:14:35;18.30;;;5.80;;
8944;SDS011;4507;40.232;29.132;2023-09-07T14:17:04;17.80;;;4.70;;
8944;SDS011;4507;40.232;29.132;2023-09-07T14:19:33;26.50;;;5.77;;
8944;SDS011;4507;40.232;29.132;2023-09-07T14:22:03;8.80;;;5.07;;
8944;SDS011;4507;40.232;29.132;2023-09-07T14:24:32;20.03;;;5.93;;
8944;SDS011;4507;40.232;29.132;2023-09-07T14:27:01;10.47;;;4.80;;
8944;SDS011;4507;40.232;29.132;2023-09-07T14:29:32;17.63;;;5.40;;
8944;SDS011;4507;40.232;29.132;2023-09-07T14:32:02;192.33;;;14.27;;
8944;SDS011;4507;40.232;29.132;2023-09-07T14:34:36;17.47;;;5.03;;
8944;SDS011;4507;40.232;29.132;2023-09-07T14:37:05;23.50;;;5.67;;
8944;SDS011;4507;40.232;29.132;2023-09-07T14:39:34;13.80;;;5.03;;
8944;SDS011;4507;40.232;29.132;2023-09-07T14:42:04;14.70;;;5.50;;
8944;SDS011;4507;40.232;29.132;2023-09-07T14:44:41;19.37;;;6.37;;
8944;SDS011;4507;40.232;29.132;2023-09-07T14:47:11;287.90;;;19.70;;
8944;SDS011;4507;40.232;29.132;2023-09-07T14:49:43;25.17;;;5.53;;
8944;SDS011;4507;40.232;29.132;2023-09-07T14:52:12;17.13;;;5.07;;
8944;SDS011;4507;40.232;29.132;2023-09-07T14:54:41;10.63;;;4.93;;
8944;SDS011;4507;40.232;29.132;2023-09-07T14:57:12;15.17;;;5.17;;
8944;SDS011;4507;40.232;29.132;2023-09-07T14:59:46;10.37;;;4.70;;
8944;SDS011;4507;40.232;29.132;2023-09-07T15:02:15;13.70;;;4.50;;
8944;SDS011;4507;40.232;29.132;2023-09-07T15:04:45;23.10;;;5.40;;
8944;SDS011;4507;40.232;29.132;2023-09-07T15:07:14;58.37;;;6.93;;